Time;durP1;ratioP1;P1;durP2;ratioP2;P2;SDS_P1;SDS_P2;PMS_P1;PMS_P2;Temp;Humidity;BMP_temperature;BMP_pressure;BME280_temperature;BME280_humidity;BME280_pressure;Samples;Min_cycle;Max_cycle;Signal;HPM_P1;HPM_P2
2022/11/20 00:02:11;;;;;;;12.77;11.48;;;1.90;99.90;;;;;;4948228;29;20035;-76
2022/11/20 00:04:37;;;;;;;18.95;14.88;;;1.80;99.90;;;;;;4948178;29;20505;-76
2022/11/20 00:07:03;;;;;;;12.65;11.32;;;1.90;99.90;;;;;;4948041;29;20107;-76
2022/11/20 00:09:28;;;;;;;14.77;12.05;;;1.80;99.90;;;;;;4948169;29;20032;-77
2022/11/20 00:11:54;;;;;;;15.82;12.88;;;1.70;99.90;;;;;;4930925;29;20036;-76
2022/11/20 00:14:20;;;;;;;13.23;11.93;;;1.70;99.90;;;;;;4948206;29;20493;-76
2022/11/20 00:16:46;;;;;;;15.57;12.77;;;1.80;99.90;;;;;;4930804;29;20037;-76
2022/11/20 00:19:12;;;;;;;15.18;12.93;;;1.70;99.90;;;;;;4947533;29;20039;-76
2022/11/20 00:21:38;;;;;;;17.52;12.95;;;1.60;99.90;;;;;;4947600;29;20516;-76
2022/11/20 00:24:04;;;;;;;14.10;12.60;;;1.60;99.90;;;;;;4947754;29;20035;-76
2022/11/20 00:26:30;;;;;;;13.90;12.38;;;1.50;99.90;;;;;;4946384;29;20032;-76
2022/11/20 00:28:58;;;;;;;14.65;13.18;;;1.60;99.90;;;;;;4948087;29;20036;-76
2022/11/20 00:31:25;;;;;;;16.75;12.98;;;1.60;99.90;;;;;;4947707;29;20492;-76
2022/11/20 00:33:51;;;;;;;15.50;13.95;;;1.60;99.90;;;;;;4947781;29;20035;-75
2022/11/20 00:36:19;;;;;;;12.30;11.10;;;1.50;99.90;;;;;;4947860;29;20067;-76
2022/11/20 00:38:46;;;;;;;13.07;11.70;;;1.50;99.90;;;;;;4888591;29;1717805;-75
2022/11/20 00:41:15;;;;;;;14.05;12.57;;;1.50;99.90;;;;;;4948495;29;20047;-76
2022/11/20 00:43:41;;;;;;;15.05;13.23;;;1.50;99.90;;;;;;4948578;29;20024;-76
2022/11/20 00:46:11;;;;;;;13.88;12.45;;;1.40;99.90;;;;;;4948339;29;20036;-76
2022/11/20 00:48:36;;;;;;;10.40;8.88;;;1.40;99.90;;;;;;4948083;29;20032;-76
2022/11/20 00:51:02;;;;;;;14.35;12.88;;;1.40;99.90;;;;;;4947627;29;20107;-76
2022/11/20 00:53:28;;;;;;;13.48;12.07;;;1.40;99.90;;;;;;4948184;29;20064;-76
2022/11/20 00:56:10;;;;;;;17.63;14.02;;;1.30;99.90;;;;;;4948283;29;20032;-76
2022/11/20 00:58:39;;;;;;;13.68;12.48;;;1.30;99.90;;;;;;4947492;29;20028;-76
2022/11/20 01:01:10;;;;;;;14.80;13.43;;;1.30;99.90;;;;;;4948402;29;20059;-76
2022/11/20 01:03:38;;;;;;;18.10;12.85;;;1.10;99.90;;;;;;4948149;29;20036;-76
2022/11/20 01:06:12;;;;;;;13.18;12.05;;;1.10;99.90;;;;;;4948189;29;20035;-76
2022/11/20 01:08:38;;;;;;;14.43;13.18;;;1.00;99.90;;;;;;4947583;29;20039;-76
2022/11/20 01:11:19;;;;;;;14.13;11.77;;;1.00;99.90;;;;;;4948409;29;20042;-77
2022/11/20 01:13:45;;;;;;;;;;;0.90;99.90;;;;;;4931398;29;20069;-76
2022/11/20 01:16:13;;;;;;;15.20;11.85;;;0.70;99.90;;;;;;4948170;29;19907;-76
2022/11/20 01:18:41;;;;;;;11.60;10.50;;;0.70;99.90;;;;;;4947777;29;20103;-76
2022/11/20 01:21:14;;;;;;;17.33;13.27;;;0.70;99.90;;;;;;4931020;29;20032;-76
2022/11/20 01:23:42;;;;;;;15.82;12.45;;;0.60;99.90;;;;;;4948041;29;20032;-76
2022/11/20 01:26:11;;;;;;;14.23;12.85;;;0.40;99.90;;;;;;4947933;29;20040;-76
2022/11/20 01:28:38;;;;;;;14.93;13.43;;;0.30;99.90;;;;;;4947906;29;20036;-75
2022/11/20 01:31:15;;;;;;;14.63;13.18;;;0.30;99.90;;;;;;4948064;29;20038;-76
2022/11/20 01:33:42;;;;;;;15.80;13.55;;;0.10;99.90;;;;;;4948137;29;20039;-76
2022/11/20 01:36:09;;;;;;;15.32;12.20;;;0.00;99.90;;;;;;4947923;29;20026;-76
2022/11/20 01:38:35;;;;;;;17.30;13.93;;;0.00;99.90;;;;;;4930797;29;20145;-75
2022/11/20 01:41:02;;;;;;;15.63;14.07;;;0.00;99.90;;;;;;4947840;29;20032;-76
2022/11/20 01:43:28;;;;;;;16.67;15.10;;;-0.20;99.90;;;;;;4948005;29;20108;-76
2022/11/20 01:45:58;;;;;;;16.00;14.50;;;-0.20;99.90;;;;;;4948022;29;20031;-76
2022/11/20 01:48:28;;;;;;;15.32;13.50;;;-0.30;99.90;;;;;;4930509;29;20028;-76
2022/11/20 01:50:54;;;;;;;17.00;14.32;;;-0.30;99.90;;;;;;4947392;29;20040;-77
2022/11/20 01:53:29;;;;;;;15.63;14.07;;;-0.30;99.90;;;;;;4947936;29;20128;-76
2022/11/20 01:55:58;;;;;;;17.83;15.88;;;-0.30;99.90;;;;;;4947731;29;20071;-76
2022/11/20 01:58:31;;;;;;;18.52;16.20;;;-0.20;99.90;;;;;;4947690;29;20063;-76
2022/11/20 02:00:57;;;;;;;20.70;14.18;;;-0.10;99.90;;;;;;4930476;29;20035;-76
2022/11/20 02:03:23;;;;;;;18.13;15.30;;;0.00;99.90;;;;;;4950258;29;20035;-77
2022/11/20 02:06:07;;;;;;;18.70;14.45;;;0.10;99.90;;;;;;4951144;29;20095;-76
2022/11/20 02:08:33;;;;;;;17.90;14.50;;;0.20;99.90;;;;;;4951126;29;20434;-76
2022/11/20 02:10:59;;;;;;;18.02;13.95;;;0.40;99.90;;;;;;4950621;29;20485;-76
2022/11/20 02:13:43;;;;;;;14.88;12.75;;;0.50;99.90;;;;;;4950995;29;20038;-76
2022/11/20 02:16:14;;;;;;;16.50;14.73;;;0.50;99.90;;;;;;4951051;29;20060;-76
2022/11/20 02:18:41;;;;;;;16.48;14.65;;;0.60;99.90;;;;;;4917617;29;20473;-77
2022/11/20 02:21:45;;;;;;;16.52;14.65;;;0.60;99.90;;;;;;4931495;29;20044;-76
2022/11/20 02:24:18;;;;;;;14.48;13.05;;;0.60;99.90;;;;;;4935425;29;20035;-76
2022/11/20 02:27:03;;;;;;;14.77;12.30;;;0.70;99.90;;;;;;4949357;29;20038;-77
2022/11/20 02:29:34;;;;;;;13.18;11.95;;;0.70;99.90;;;;;;4950365;29;20174;-76
2022/11/20 02:32:01;;;;;;;13.90;11.75;;;0.70;99.90;;;;;;4950693;29;20036;-76
2022/11/20 02:34:28;;;;;;;13.95;12.50;;;0.80;99.90;;;;;;4950683;29;20055;-76
2022/11/20 02:36:56;;;;;;;15.13;12.38;;;0.80;99.90;;;;;;4933270;29;20038;-76
2022/11/20 02:39:25;;;;;;;17.00;12.70;;;0.80;99.90;;;;;;4949490;29;20509;-76
2022/11/20 02:41:53;;;;;;;15.10;13.43;;;0.80;99.90;;;;;;4950616;29;20102;-75
2022/11/20 02:44:19;;;;;;;13.43;12.13;;;0.80;99.90;;;;;;4933216;29;20388;-76
2022/11/20 02:46:45;;;;;;;14.57;13.07;;;0.80;99.90;;;;;;4950390;29;20028;-77
2022/11/20 02:49:11;;;;;;;15.52;13.98;;;0.80;99.90;;;;;;4950025;29;20046;-76
2022/11/20 02:51:37;;;;;;;14.77;13.18;;;0.80;99.90;;;;;;4950204;29;20044;-77
2022/11/20 02:54:04;;;;;;;14.55;13.13;;;0.80;99.90;;;;;;4950279;29;20040;-77
2022/11/20 02:56:30;;;;;;;14.20;12.40;;;0.80;99.90;;;;;;4933419;29;20040;-77
2022/11/20 02:58:56;;;;;;;14.50;12.68;;;0.80;99.90;;;;;;4932792;29;20027;-76
2022/11/20 03:01:22;;;;;;;14.10;12.20;;;0.80;99.90;;;;;;4949996;29;20098;-75
2022/11/20 03:03:48;;;;;;;14.32;12.77;;;0.80;99.90;;;;;;4950243;29;20027;-75
2022/11/20 03:06:16;;;;;;;13.77;12.38;;;0.80;99.90;;;;;;4950027;29;20035;-76
2022/11/20 03:08:42;;;;;;;15.52;13.88;;;0.80;99.90;;;;;;4932478;29;20068;-76
2022/11/20 03:11:08;;;;;;;17.25;14.70;;;0.80;99.90;;;;;;4949982;29;20099;-76
2022/11/20 03:13:34;;;;;;;14.27;12.43;;;0.80;99.90;;;;;;4900541;29;20039;-77
2022/11/20 03:16:11;;;;;;;15.55;12.25;;;0.70;99.90;;;;;;4932609;29;20103;-76
2022/11/20 03:18:38;;;;;;;14.20;12.57;;;0.70;99.90;;;;;;4949479;29;20116;-76
2022/11/20 03:21:04;;;;;;;13.38;11.85;;;0.80;99.90;;;;;;4932739;29;20032;-76
2022/11/20 03:23:31;;;;;;;14.00;12.52;;;0.80;99.90;;;;;;4949517;29;20039;-75
2022/11/20 03:26:07;;;;;;;16.40;14.70;;;0.80;99.90;;;;;;4916841;29;20035;-76
2022/11/20 03:28:33;;;;;;;16.02;13.07;;;0.80;99.90;;;;;;4949535;29;20031;-76
2022/11/20 03:31:08;;;;;;;11.57;10.43;;;0.80;99.90;;;;;;4949606;29;20040;-76
2022/11/20 03:33:34;;;;;;;13.75;12.27;;;0.80;99.90;;;;;;4932352;29;20030;-75
2022/11/20 03:36:05;;;;;;;16.67;14.45;;;0.80;99.90;;;;;;4932868;29;20394;-76
2022/11/20 03:38:32;;;;;;;14.13;12.77;;;0.80;99.90;;;;;;4948909;29;20044;-76
2022/11/20 03:40:59;;;;;;;16.50;14.23;;;0.90;99.90;;;;;;4949113;29;20035;-76
2022/11/20 03:43:25;;;;;;;16.13;12.52;;;0.90;99.90;;;;;;4949494;29;20040;-76
2022/11/20 03:45:51;;;;;;;15.95;13.35;;;1.00;99.90;;;;;;4949202;29;20043;-75
2022/11/20 03:48:17;;;;;;;14.48;12.90;;;0.90;99.90;;;;;;4948873;29;20036;-76
2022/11/20 03:50:43;;;;;;;16.50;11.55;;;0.90;99.90;;;;;;4949275;29;20048;-77
2022/11/20 03:53:09;;;;;;;14.30;13.00;;;0.90;99.90;;;;;;4949224;29;20044;-76
2022/11/20 03:55:35;;;;;;;14.45;12.98;;;0.90;99.90;;;;;;4949013;29;20042;-76
2022/11/20 03:58:01;;;;;;;12.55;11.50;;;1.00;99.90;;;;;;4948884;29;20036;-77
2022/11/20 04:00:26;;;;;;;18.95;14.98;;;1.00;99.90;;;;;;4949119;29;20043;-77
2022/11/20 04:02:52;;;;;;;14.57;13.25;;;1.00;99.90;;;;;;4931852;29;20036;-76
2022/11/20 04:05:18;;;;;;;14.65;12.95;;;1.00;99.90;;;;;;4932201;29;20047;-76
2022/11/20 04:07:44;;;;;;;15.50;14.02;;;1.00;99.90;;;;;;4948524;29;20027;-76
2022/11/20 04:10:09;;;;;;;14.15;12.73;;;1.00;99.90;;;;;;4948974;29;20094;-76
2022/11/20 04:12:35;;;;;;;13.82;12.50;;;1.00;99.90;;;;;;4949026;29;20103;-77
2022/11/20 04:15:01;;;;;;;15.27;13.68;;;0.90;99.90;;;;;;4948753;29;20072;-76
2022/11/20 04:17:26;;;;;;;14.68;12.93;;;0.90;99.90;;;;;;4931558;29;20079;-76
2022/11/20 04:19:53;;;;;;;14.05;12.63;;;0.90;99.90;;;;;;4931490;29;20039;-76
2022/11/20 04:22:18;;;;;;;14.52;13.05;;;0.90;99.90;;;;;;4931299;29;20035;-76
2022/11/20 04:24:44;;;;;;;14.23;12.55;;;0.90;99.90;;;;;;4948443;29;20035;-77
2022/11/20 04:27:10;;;;;;;17.42;14.60;;;0.80;99.90;;;;;;4948804;29;20040;-77
2022/11/20 04:29:36;;;;;;;15.82;14.13;;;0.90;99.90;;;;;;4948158;29;20036;-76
2022/11/20 04:32:02;;;;;;;15.48;13.70;;;1.00;99.90;;;;;;4948716;29;20051;-76
2022/11/20 04:34:27;;;;;;;15.80;14.25;;;1.00;99.90;;;;;;4948474;29;20039;-76
2022/11/20 04:36:54;;;;;;;14.05;12.77;;;1.00;99.90;;;;;;4931259;29;20036;-75
2022/11/20 04:39:20;;;;;;;13.43;11.60;;;1.00;99.90;;;;;;4948105;29;20052;-76
2022/11/20 04:41:45;;;;;;;13.30;12.10;;;1.00;99.90;;;;;;4948474;29;20038;-76
2022/11/20 04:44:11;;;;;;;16.13;13.25;;;1.10;99.90;;;;;;4931351;29;20038;-76
2022/11/20 04:46:40;;;;;;;15.77;13.90;;;1.10;99.90;;;;;;4948649;29;20042;-75
2022/11/20 04:49:06;;;;;;;15.55;12.98;;;1.20;99.90;;;;;;4930799;29;20028;-76
2022/11/20 04:51:33;;;;;;;13.27;11.90;;;1.20;99.90;;;;;;4948321;29;20032;-77
2022/11/20 04:53:59;;;;;;;14.32;12.45;;;1.20;99.90;;;;;;4931381;29;20036;-77
2022/11/20 04:56:24;;;;;;;14.88;13.32;;;1.30;99.90;;;;;;4948049;29;20035;-76
2022/11/20 04:58:51;;;;;;;13.32;12.20;;;1.30;99.90;;;;;;4931354;29;20038;-76
2022/11/20 05:01:24;;;;;;;15.45;13.50;;;1.40;99.90;;;;;;4948315;29;20032;-75
2022/11/20 05:03:50;;;;;;;15.52;13.15;;;1.50;99.90;;;;;;4948230;29;20076;-76
2022/11/20 05:06:18;;;;;;;14.25;12.77;;;1.50;99.90;;;;;;4947842;29;20038;-76
2022/11/20 05:08:44;;;;;;;17.27;12.63;;;1.40;99.90;;;;;;4948268;29;20028;-75
2022/11/20 05:11:12;;;;;;;13.65;12.27;;;1.30;99.90;;;;;;4931091;29;20115;-75
2022/11/20 05:13:39;;;;;;;14.52;12.55;;;1.40;99.90;;;;;;4948205;29;20040;-75
2022/11/20 05:16:13;;;;;;;14.77;13.02;;;1.40;99.90;;;;;;4947958;29;20370;-76
2022/11/20 05:18:40;;;;;;;16.90;13.43;;;1.40;99.90;;;;;;4948293;29;20047;-77
2022/11/20 05:21:06;;;;;;;14.25;12.73;;;1.30;99.90;;;;;;4948107;29;20024;-75
2022/11/20 05:23:32;;;;;;;14.20;11.95;;;1.30;99.90;;;;;;4931022;29;20062;-76
2022/11/20 05:25:58;;;;;;;15.05;13.55;;;1.30;99.90;;;;;;4947878;29;20059;-76
2022/11/20 05:28:25;;;;;;;16.10;13.20;;;1.30;99.90;;;;;;4946930;29;20035;-76
2022/11/20 05:30:51;;;;;;;15.25;13.77;;;1.30;99.90;;;;;;4930801;29;20036;-76
2022/11/20 05:33:17;;;;;;;13.45;11.80;;;1.30;99.90;;;;;;4930851;29;20043;-76
2022/11/20 05:35:43;;;;;;;14.15;12.73;;;1.20;99.90;;;;;;4947989;29;20031;-76
2022/11/20 05:38:09;;;;;;;15.65;14.10;;;1.10;99.90;;;;;;4949747;29;20067;-75
2022/11/20 05:40:35;;;;;;;21.20;14.85;;;1.20;99.90;;;;;;4934374;29;20075;-76
2022/11/20 05:43:02;;;;;;;17.85;14.30;;;1.20;99.90;;;;;;4951619;29;20028;-76
2022/11/20 05:45:28;;;;;;;13.90;12.55;;;1.20;99.90;;;;;;4951402;29;20036;-77
2022/11/20 05:47:58;;;;;;;18.85;14.77;;;1.40;99.90;;;;;;4951225;29;20042;-76
2022/11/20 05:50:24;;;;;;;15.15;13.52;;;1.30;99.90;;;;;;4951046;29;20028;-76
2022/11/20 05:52:49;;;;;;;17.38;13.63;;;1.30;99.90;;;;;;4951430;29;20063;-76
2022/11/20 05:55:16;;;;;;;14.35;12.90;;;1.40;99.90;;;;;;4951513;29;20043;-76
2022/11/20 05:57:42;;;;;;;15.63;12.82;;;1.40;99.90;;;;;;4934030;29;20086;-76
2022/11/20 06:00:08;;;;;;;16.15;14.23;;;1.40;99.90;;;;;;4950891;29;20040;-76
2022/11/20 06:02:37;;;;;;;13.88;12.45;;;1.50;99.90;;;;;;4951245;29;20032;-75
2022/11/20 06:05:03;;;;;;;15.32;13.70;;;1.50;99.90;;;;;;4934311;29;20042;-76
2022/11/20 06:07:28;;;;;;;14.50;12.65;;;1.60;99.90;;;;;;4951028;29;20027;-76
2022/11/20 06:09:54;;;;;;;15.07;13.68;;;1.50;99.90;;;;;;4950949;29;20036;-76
2022/11/20 06:12:20;;;;;;;16.15;14.52;;;1.60;99.90;;;;;;4934132;29;20035;-76
2022/11/20 06:14:46;;;;;;;17.95;11.98;;;1.60;99.90;;;;;;4933742;29;20087;-76
2022/11/20 06:17:11;;;;;;;15.77;13.65;;;1.60;99.90;;;;;;4951248;29;20039;-76
2022/11/20 06:19:38;;;;;;;13.45;12.30;;;1.60;99.90;;;;;;4950392;29;20040;-77
2022/11/20 06:22:03;;;;;;;17.02;15.23;;;1.70;99.90;;;;;;4933926;29;20050;-76
2022/11/20 06:24:29;;;;;;;14.73;13.23;;;1.60;99.90;;;;;;4933696;29;20038;-76
2022/11/20 06:26:55;;;;;;;22.85;13.98;;;1.70;99.90;;;;;;4950730;29;20032;-77
2022/11/20 06:29:21;;;;;;;13.80;12.50;;;1.70;99.90;;;;;;4933685;29;20035;-76
2022/11/20 06:31:47;;;;;;;17.15;14.77;;;1.70;99.90;;;;;;4917923;29;20040;-77
2022/11/20 06:34:13;;;;;;;14.40;12.90;;;1.70;99.90;;;;;;4950734;29;20032;-76
2022/11/20 06:36:39;;;;;;;17.25;15.48;;;1.80;99.90;;;;;;4933829;29;20047;-77
2022/11/20 06:39:05;;;;;;;16.65;14.38;;;1.80;99.90;;;;;;4954582;29;20062;-77
2022/11/20 06:41:31;;;;;;;17.38;15.35;;;1.70;99.90;;;;;;4954509;29;20128;-76
2022/11/20 06:43:56;;;;;;;26.00;21.33;;;1.80;99.90;;;;;;4945492;29;20036;-76
2022/11/20 06:46:22;;;;;;;25.30;18.67;;;1.80;99.90;;;;;;4932130;29;20090;-75
2022/11/20 06:48:49;;;;;;;14.75;13.45;;;1.80;99.90;;;;;;4942638;29;20030;-74
2022/11/20 06:51:15;;;;;;;17.17;14.30;;;1.80;99.90;;;;;;4936165;29;20023;-74
2022/11/20 06:53:41;;;;;;;15.43;14.18;;;1.80;99.90;;;;;;4945575;29;20499;-77
2022/11/20 06:56:07;;;;;;;15.63;13.85;;;1.80;99.90;;;;;;4923116;29;20107;-75
2022/11/20 06:58:34;;;;;;;15.50;13.88;;;1.80;99.90;;;;;;4945287;29;20055;-75
2022/11/20 07:01:01;;;;;;;16.83;15.18;;;1.80;99.90;;;;;;4940013;29;20035;-74
2022/11/20 07:03:27;;;;;;;17.05;15.55;;;1.80;99.90;;;;;;4932554;29;20062;-75
2022/11/20 07:05:58;;;;;;;16.77;15.10;;;1.70;99.90;;;;;;4932762;29;20024;-75
2022/11/20 07:08:24;;;;;;;19.40;15.65;;;1.70;99.90;;;;;;4931140;29;20036;-77
2022/11/20 07:10:50;;;;;;;21.33;16.90;;;1.70;99.90;;;;;;4932251;29;20137;-77
2022/11/20 07:13:16;;;;;;;13.70;12.52;;;1.70;99.90;;;;;;4942333;29;20040;-77
2022/11/20 07:15:42;;;;;;;17.95;16.15;;;1.80;99.90;;;;;;4949543;29;20040;-77
2022/11/20 07:18:08;;;;;;;17.08;15.20;;;1.80;99.90;;;;;;4931931;29;20047;-77
2022/11/20 07:20:34;;;;;;;16.55;14.73;;;1.80;99.90;;;;;;4949734;29;20040;-74
2022/11/20 07:23:00;;;;;;;16.10;14.48;;;1.90;99.90;;;;;;4932073;29;20023;-74
2022/11/20 07:25:27;;;;;;;18.67;15.00;;;1.80;99.90;;;;;;4949286;29;20042;-75
2022/11/20 07:27:56;;;;;;;17.85;16.10;;;1.80;99.90;;;;;;4900713;29;20042;-77
2022/11/20 07:30:22;;;;;;;16.75;15.20;;;1.80;99.90;;;;;;4949358;29;20035;-76
2022/11/20 07:32:51;;;;;;;21.52;18.58;;;1.80;99.90;;;;;;4931147;29;20040;-77
2022/11/20 07:35:17;;;;;;;21.42;17.50;;;1.70;99.90;;;;;;4932148;29;20031;-76
2022/11/20 07:37:43;;;;;;;32.20;26.35;;;1.70;99.90;;;;;;4932072;29;20099;-77
2022/11/20 07:40:09;;;;;;;30.73;23.85;;;1.80;99.90;;;;;;4948513;29;20040;-77
2022/11/20 07:42:35;;;;;;;24.55;19.88;;;1.80;99.90;;;;;;4949326;29;20133;-75
2022/11/20 07:45:01;;;;;;;27.92;22.13;;;1.90;99.90;;;;;;4948629;29;20028;-77
2022/11/20 07:47:27;;;;;;;42.28;25.20;;;2.00;99.90;;;;;;4940984;29;20046;-76
2022/11/20 07:49:52;;;;;;;38.03;28.17;;;2.10;99.90;;;;;;4964005;29;20036;-76
2022/11/20 07:52:18;;;;;;;33.05;25.92;;;2.20;99.90;;;;;;4932117;29;20035;-76
2022/11/20 07:54:44;;;;;;;34.15;24.90;;;2.20;99.90;;;;;;4944456;29;20035;-77
2022/11/20 07:57:10;;;;;;;31.73;22.50;;;2.30;99.90;;;;;;4950861;29;20073;-77
2022/11/20 07:59:36;;;;;;;36.35;25.40;;;2.30;99.90;;;;;;4950345;28;20031;-77
2022/11/20 08:02:02;;;;;;;31.85;23.58;;;2.40;99.90;;;;;;4948008;29;20034;-77
2022/11/20 08:04:28;;;;;;;30.90;23.75;;;2.50;99.90;;;;;;4952418;29;20031;-77
2022/11/20 08:06:53;;;;;;;31.77;24.77;;;2.60;99.90;;;;;;4946211;29;20031;-75
2022/11/20 08:09:19;;;;;;;36.75;25.70;;;2.70;99.90;;;;;;4946334;29;20027;-78
2022/11/20 08:14:29;;;;;;;37.90;25.83;;;2.80;99.90;;;;;;4944750;29;20046;-76
2022/11/20 08:16:55;;;;;;;36.58;24.02;;;2.80;99.90;;;;;;4946719;29;20027;-75
2022/11/20 08:19:21;;;;;;;43.42;28.50;;;2.90;99.90;;;;;;4951158;29;20066;-76
2022/11/20 08:21:47;;;;;;;30.95;24.75;;;3.00;99.90;;;;;;4919900;29;20047;-76
2022/11/20 08:24:12;;;;;;;25.35;22.70;;;3.00;99.90;;;;;;4935121;29;20079;-77
2022/11/20 08:26:40;;;;;;;36.42;30.77;;;3.10;99.90;;;;;;4916231;29;20020;-78
2022/11/20 08:29:06;;;;;;;32.63;27.40;;;3.10;99.90;;;;;;4908905;29;20035;-75
2022/11/20 08:31:32;;;;;;;34.85;28.00;;;3.10;99.90;;;;;;4939588;29;20031;-77
2022/11/20 08:33:58;;;;;;;47.00;32.75;;;3.30;99.90;;;;;;4953856;29;20099;-77
2022/11/20 08:36:24;;;;;;;43.38;32.47;;;3.20;99.90;;;;;;4913662;29;20036;-78
2022/11/20 08:38:55;;;;;;;35.28;29.95;;;3.10;99.90;;;;;;4929144;29;20071;-77
2022/11/20 08:41:28;;;;;;;42.85;30.17;;;3.20;99.90;;;;;;4929315;29;20050;-77
2022/11/20 08:43:57;;;;;;;41.25;29.65;;;3.20;99.90;;;;;;4929999;29;20070;-77
2022/11/20 08:46:27;;;;;;;44.10;27.15;;;3.20;99.90;;;;;;4948432;29;20055;-78
2022/11/20 08:48:53;;;;;;;33.20;29.33;;;3.10;99.90;;;;;;4931678;29;20039;-75
2022/11/20 08:51:19;;;;;;;38.50;26.52;;;3.20;99.90;;;;;;4948488;29;20032;-78
2022/11/20 08:53:46;;;;;;;44.63;32.65;;;3.30;99.90;;;;;;4948190;29;20063;-75
2022/11/20 08:56:11;;;;;;;44.47;31.75;;;3.30;99.90;;;;;;4929802;29;20071;-76
2022/11/20 08:58:38;;;;;;;41.28;31.13;;;3.30;99.90;;;;;;4948396;29;20028;-75
2022/11/20 09:01:04;;;;;;;30.40;26.55;;;3.40;99.90;;;;;;4948043;29;20493;-76
2022/11/20 09:03:31;;;;;;;34.35;28.95;;;3.50;99.90;;;;;;4948279;29;20070;-75
2022/11/20 09:06:01;;;;;;;28.33;24.98;;;3.60;99.90;;;;;;4947722;29;20042;-75
2022/11/20 09:08:28;;;;;;;38.05;25.05;;;3.70;99.90;;;;;;4948246;29;20036;-75
2022/11/20 09:10:55;;;;;;;33.58;24.70;;;3.70;99.90;;;;;;4947959;29;20040;-75
2022/11/20 09:13:22;;;;;;;36.13;25.20;;;3.90;99.90;;;;;;4950911;29;20062;-75
2022/11/20 09:16:05;;;;;;;33.92;28.13;;;4.00;99.90;;;;;;4951632;29;20087;-75
2022/11/20 09:18:32;;;;;;;30.00;24.42;;;4.10;99.90;;;;;;4952084;29;20065;-75
2022/11/20 09:20:59;;;;;;;33.35;24.65;;;4.10;99.90;;;;;;4951781;29;20036;-78
2022/11/20 09:23:27;;;;;;;35.72;23.55;;;4.00;99.90;;;;;;4934874;29;20457;-75
2022/11/20 09:25:55;;;;;;;36.33;24.58;;;4.10;99.90;;;;;;4934361;29;20052;-76
2022/11/20 09:28:21;;;;;;;24.20;21.52;;;4.00;99.90;;;;;;4941857;29;20032;-75
2022/11/20 09:30:47;;;;;;;35.95;25.17;;;4.00;99.90;;;;;;4951918;29;20106;-75
2022/11/20 09:33:12;;;;;;;30.42;22.63;;;4.10;99.90;;;;;;4951659;29;20032;-75
2022/11/20 09:35:38;;;;;;;28.63;21.02;;;4.10;99.90;;;;;;4951410;29;20027;-75
2022/11/20 09:38:06;;;;;;;29.40;21.92;;;4.20;99.90;;;;;;4951576;29;20187;-77
2022/11/20 09:40:34;;;;;;;21.55;19.27;;;4.30;99.90;;;;;;4951481;29;20070;-76
2022/11/20 09:43:03;;;;;;;31.73;23.98;;;4.40;99.90;;;;;;4934422;29;20397;-77
2022/11/20 09:45:44;;;;;;;34.70;24.00;;;4.30;99.90;;;;;;4951105;29;20031;-76
2022/11/20 09:48:19;;;;;;;35.95;23.30;;;4.40;99.90;;;;;;4934222;29;20050;-76
2022/11/20 09:51:11;;;;;;;29.98;21.90;;;4.40;99.90;;;;;;4934577;29;20031;-76
2022/11/20 09:53:53;;;;;;;31.67;23.58;;;4.50;99.90;;;;;;4951664;29;20039;-75
2022/11/20 09:56:21;;;;;;;22.67;19.15;;;4.40;99.90;;;;;;4951132;29;20033;-75
2022/11/20 09:58:57;;;;;;;31.35;20.35;;;4.40;99.90;;;;;;4951079;29;20041;-76
2022/11/20 10:01:32;;;;;;;28.70;20.00;;;4.70;99.90;;;;;;4951131;29;20039;-76
2022/11/20 10:04:13;;;;;;;25.90;18.13;;;4.60;99.90;;;;;;4951198;29;20063;-78
2022/11/20 10:06:52;;;;;;;26.13;22.02;;;4.60;99.90;;;;;;4950733;29;20059;-77
2022/11/20 10:09:42;;;;;;;25.65;20.00;;;4.50;99.90;;;;;;4954005;29;20035;-77
2022/11/20 10:12:18;;;;;;;;;;;4.70;99.90;;;;;;4946169;29;20039;-75
2022/11/20 10:15:12;;;;;;;26.77;21.80;;;4.80;99.90;;;;;;4924793;29;21258;-77
2022/11/20 10:18:14;;;;;;;31.30;21.75;;;4.90;99.90;;;;;;4944214;29;20032;-77
2022/11/20 10:21:05;;;;;;;31.90;22.65;;;4.90;99.90;;;;;;4960875;29;20046;-77
2022/11/20 10:23:40;;;;;;;30.73;21.70;;;4.60;99.90;;;;;;4942603;29;20035;-77
2022/11/20 10:26:45;;;;;;;28.77;21.00;;;4.60;99.90;;;;;;4944570;29;20035;-77
2022/11/20 10:29:21;;;;;;;25.23;19.77;;;4.70;99.90;;;;;;4947014;29;20046;-76
2022/11/20 10:31:54;;;;;;;28.42;20.92;;;4.90;99.90;;;;;;4942738;29;20035;-77
2022/11/20 10:34:52;;;;;;;27.65;20.13;;;5.00;99.90;;;;;;4936360;29;20027;-77
2022/11/20 10:37:30;;;;;;;33.08;20.85;;;4.90;99.90;;;;;;4893184;29;20095;-77
2022/11/20 10:39:56;;;;;;;29.83;21.55;;;4.80;99.90;;;;;;4952822;29;20043;-76
2022/11/20 10:42:45;;;;;;;27.33;21.15;;;4.70;99.90;;;;;;4951249;29;20043;-76
2022/11/20 10:45:23;;;;;;;24.58;21.10;;;4.70;99.90;;;;;;4936455;29;20053;-77
2022/11/20 10:47:54;;;;;;;27.75;19.75;;;4.80;99.90;;;;;;4944816;29;20082;-77
2022/11/20 10:50:21;;;;;;;31.15;20.27;;;4.60;99.90;;;;;;4936986;29;20023;-77
2022/11/20 10:53:07;;;;;;;29.38;24.10;;;4.70;99.90;;;;;;4944270;29;20023;-77
2022/11/20 10:55:38;;;;;;;28.42;20.35;;;4.70;99.90;;;;;;4948100;29;20042;-77
2022/11/20 10:58:26;;;;;;;27.20;21.35;;;4.80;99.90;;;;;;4934903;29;20090;-77
2022/11/20 11:00:51;;;;;;;32.20;24.20;;;4.80;99.90;;;;;;4964014;29;20032;-77
2022/11/20 11:03:27;;;;;;;24.20;18.75;;;4.80;99.90;;;;;;4952044;29;20039;-77
2022/11/20 11:06:25;;;;;;;23.80;19.08;;;5.00;99.90;;;;;;4945693;29;20032;-77
2022/11/20 11:08:56;;;;;;;28.25;21.13;;;5.00;99.90;;;;;;4946367;29;20047;-77
2022/11/20 11:11:32;;;;;;;24.10;19.67;;;5.00;99.90;;;;;;4953890;29;20350;-77
2022/11/20 11:14:13;;;;;;;34.88;21.98;;;5.00;99.90;;;;;;4954238;29;20043;-77
2022/11/20 11:16:51;;;;;;;29.15;22.10;;;4.90;99.90;;;;;;4934144;29;20107;-77
2022/11/20 11:19:17;;;;;;;27.58;22.02;;;4.90;99.90;;;;;;4958828;29;20059;-76
2022/11/20 11:22:10;;;;;;;34.65;21.88;;;4.80;99.90;;;;;;4955752;29;20080;-78
2022/11/20 11:24:36;;;;;;;26.80;20.15;;;4.90;99.90;;;;;;4948824;29;20373;-77
2022/11/20 11:27:10;;;;;;;37.13;22.67;;;5.00;99.90;;;;;;4948951;29;20023;-77
2022/11/20 11:29:36;;;;;;;32.95;21.55;;;4.70;99.90;;;;;;4916691;29;20024;-77
2022/11/20 11:32:11;;;;;;;30.42;21.45;;;4.80;99.90;;;;;;4951596;29;20106;-77
2022/11/20 11:34:36;;;;;;;28.38;22.00;;;4.80;99.90;;;;;;4949091;29;20039;-77
2022/11/20 11:37:04;;;;;;;33.70;24.02;;;5.00;99.90;;;;;;4932415;29;20031;-77
2022/11/20 11:39:32;;;;;;;29.00;20.27;;;5.00;99.90;;;;;;4949255;29;20043;-77
2022/11/20 11:42:00;;;;;;;29.23;24.13;;;4.90;99.90;;;;;;4948678;29;20103;-77
2022/11/20 11:47:27;;;;;;;28.13;23.27;;;4.90;99.90;;;;;;4932442;29;20036;-77
2022/11/20 11:50:15;;;;;;;26.77;21.08;;;5.00;99.90;;;;;;4897675;29;20039;-77
2022/11/20 11:53:09;;;;;;;39.30;26.95;;;5.00;99.90;;;;;;4930161;29;20047;-77
2022/11/20 11:55:43;;;;;;;31.58;24.30;;;5.10;99.90;;;;;;4929177;29;20036;-77
2022/11/20 11:58:31;;;;;;;36.42;25.52;;;5.10;99.90;;;;;;4930218;29;20042;-77
2022/11/20 12:01:13;;;;;;;35.35;25.10;;;5.00;99.90;;;;;;4941132;29;20046;-77
2022/11/20 12:03:42;;;;;;;32.75;23.67;;;5.10;99.90;;;;;;4948944;29;20060;-77
2022/11/20 12:06:16;;;;;;;35.53;27.93;;;5.10;99.90;;;;;;4948954;29;20033;-77
2022/11/20 12:09:03;;;;;;;31.73;26.52;;;5.10;99.90;;;;;;4954590;29;20028;-77
2022/11/20 12:11:40;;;;;;;34.25;25.13;;;5.10;99.90;;;;;;4948948;29;20484;-77
2022/11/20 12:14:26;;;;;;;31.77;26.20;;;5.00;99.90;;;;;;4961118;29;20031;-78
2022/11/20 12:16:53;;;;;;;37.65;25.15;;;5.10;99.90;;;;;;4967972;29;20140;-78
2022/11/20 12:19:19;;;;;;;31.33;24.10;;;5.20;99.90;;;;;;4968060;29;20532;-76
2022/11/20 12:22:11;;;;;;;38.38;26.38;;;5.40;99.90;;;;;;4950755;29;20031;-78
2022/11/20 12:24:53;;;;;;;41.38;26.23;;;5.40;99.90;;;;;;4967910;29;20492;-77
2022/11/20 12:27:54;;;;;;;39.10;26.58;;;5.60;99.90;;;;;;4949973;29;20028;-78
2022/11/20 12:30:21;;;;;;;37.45;25.90;;;5.60;99.90;;;;;;4915715;29;20044;-77
2022/11/20 12:33:17;;;;;;;35.75;24.58;;;5.90;99.90;;;;;;4930560;29;20483;-77
2022/11/20 12:36:05;;;;;;;37.42;26.08;;;6.10;99.90;;;;;;4946234;29;20430;-77
2022/11/20 12:38:57;;;;;;;35.05;27.13;;;5.90;99.90;;;;;;4931000;29;20038;-76
2022/11/20 12:45:10;;;;;;;36.25;24.00;;;6.20;99.90;;;;;;4948558;29;20039;-77
2022/11/20 12:47:54;;;;;;;40.55;28.73;;;6.40;99.90;;;;;;4931093;29;20027;-77
2022/11/20 12:50:51;;;;;;;35.60;24.50;;;6.40;99.90;;;;;;4948422;29;20508;-77
2022/11/20 12:53:41;;;;;;;35.40;25.90;;;6.40;99.90;;;;;;4948362;29;20488;-77
2022/11/20 12:56:13;;;;;;;34.67;24.73;;;6.50;99.90;;;;;;4948512;29;20043;-77
2022/11/20 12:59:16;;;;;;;32.25;24.45;;;6.60;99.90;;;;;;4948453;29;20035;-77
2022/11/20 13:01:50;;;;;;;35.22;26.33;;;6.40;99.90;;;;;;4947954;29;20099;-77
2022/11/20 13:04:37;;;;;;;33.55;23.15;;;6.50;99.90;;;;;;4948436;29;20035;-77